Time;durP1;ratioP1;P1;durP2;ratioP2;P2;SDS_P1;SDS_P2;PMS_P1;PMS_P2;Temp;Humidity;BMP_temperature;BMP_pressure;BME280_temperature;BME280_humidity;BME280_pressure;Samples;Min_cycle;Max_cycle;Signal;HPM_P1;HPM_P2
2023/03/04 00:00:05;;;;;;;16.48;7.82;;;2.50;80.70;;;;;;5068793;28;20045;-61
2023/03/04 00:02:39;;;;;;;14.88;7.53;;;2.50;80.40;;;;;;5066542;28;20044;-61
2023/03/04 00:05:07;;;;;;;15.98;8.07;;;2.60;80.60;;;;;;5067628;28;20066;-62
2023/03/04 00:07:40;;;;;;;17.15;7.80;;;2.50;80.90;;;;;;5069035;28;20063;-63
2023/03/04 00:10:08;;;;;;;16.88;7.90;;;2.60;80.80;;;;;;5068088;28;20082;-61
2023/03/04 00:12:35;;;;;;;15.93;8.35;;;2.60;80.60;;;;;;5068725;28;20488;-63
2023/03/04 00:15:02;;;;;;;16.02;8.05;;;2.60;80.70;;;;;;5067756;28;20503;-61
2023/03/04 00:17:35;;;;;;;16.33;8.45;;;2.60;80.70;;;;;;5070655;28;20053;-62
2023/03/04 00:20:11;;;;;;;14.25;7.40;;;2.60;80.50;;;;;;5069991;28;20106;-61
2023/03/04 00:22:42;;;;;;;16.48;7.28;;;2.50;80.60;;;;;;5068626;28;20121;-62
2023/03/04 00:25:09;;;;;;;14.15;7.18;;;2.60;80.60;;;;;;5068750;28;20401;-61
2023/03/04 00:27:37;;;;;;;14.95;7.30;;;2.50;80.60;;;;;;5070148;28;20082;-61
2023/03/04 00:30:05;;;;;;;16.02;7.18;;;2.50;80.70;;;;;;5067998;28;20384;-61
2023/03/04 00:32:32;;;;;;;13.85;7.75;;;2.50;80.50;;;;;;5068713;28;20105;-61
2023/03/04 00:34:59;;;;;;;16.80;7.03;;;2.50;80.60;;;;;;5084070;28;20302;-60
2023/03/04 00:37:37;;;;;;;14.57;7.70;;;2.60;80.40;;;;;;5069785;28;20059;-61
2023/03/04 00:40:06;;;;;;;17.45;7.65;;;2.60;80.30;;;;;;5065966;28;20051;-61
2023/03/04 00:42:33;;;;;;;16.98;7.18;;;2.60;80.40;;;;;;5070370;28;20098;-62
2023/03/04 00:44:59;;;;;;;14.75;7.45;;;2.60;80.40;;;;;;5068102;28;20094;-61
2023/03/04 00:47:26;;;;;;;17.10;8.27;;;2.50;80.50;;;;;;5069483;28;20048;-61
2023/03/04 00:49:53;;;;;;;17.02;7.60;;;2.50;80.40;;;;;;5053771;28;20102;-62
2023/03/04 00:52:20;;;;;;;13.43;7.30;;;2.50;80.40;;;;;;5068384;28;20047;-61
2023/03/04 00:54:49;;;;;;;16.08;7.80;;;2.50;80.30;;;;;;5065606;28;20045;-62
2023/03/04 00:57:16;;;;;;;17.23;7.68;;;2.50;80.40;;;;;;5067638;28;20488;-61
2023/03/04 00:59:45;;;;;;;15.70;8.18;;;2.40;80.40;;;;;;5067462;28;20052;-62
2023/03/04 01:02:12;;;;;;;14.88;7.63;;;2.40;80.40;;;;;;5067977;28;20044;-63
2023/03/04 01:04:40;;;;;;;14.95;7.72;;;2.40;80.50;;;;;;5064990;28;20044;-61
2023/03/04 01:07:10;;;;;;;15.25;7.63;;;2.30;80.40;;;;;;5065969;28;20044;-61
2023/03/04 01:09:37;;;;;;;17.13;7.88;;;2.30;80.40;;;;;;5067108;28;20051;-62
2023/03/04 01:12:06;;;;;;;14.73;7.90;;;2.30;80.30;;;;;;5048865;28;20041;-62
2023/03/04 01:14:33;;;;;;;15.85;8.02;;;2.20;80.40;;;;;;5066696;28;20053;-62
2023/03/04 01:16:59;;;;;;;16.38;8.45;;;2.10;80.50;;;;;;5067989;28;20051;-62
2023/03/04 01:19:26;;;;;;;19.13;8.18;;;2.00;80.70;;;;;;5067258;28;20092;-61
2023/03/04 01:21:53;;;;;;;15.55;7.43;;;1.90;81.00;;;;;;5065130;28;20531;-61
2023/03/04 01:24:22;;;;;;;16.63;7.22;;;1.90;81.20;;;;;;5060170;28;20132;-61
2023/03/04 01:26:48;;;;;;;16.05;7.55;;;1.90;81.40;;;;;;5066670;28;20048;-61
2023/03/04 01:29:17;;;;;;;16.35;7.40;;;1.90;81.50;;;;;;5046930;28;20112;-62
2023/03/04 01:31:43;;;;;;;15.00;7.43;;;1.90;81.60;;;;;;5047351;28;20045;-62
2023/03/04 01:34:10;;;;;;;17.25;8.13;;;1.90;81.90;;;;;;5048178;28;20052;-62
2023/03/04 01:36:37;;;;;;;18.48;7.78;;;1.90;82.10;;;;;;5045738;28;20051;-62
2023/03/04 01:39:05;;;;;;;16.27;7.75;;;1.90;82.10;;;;;;5039545;28;20139;-61
2023/03/04 01:41:32;;;;;;;17.13;8.52;;;1.90;82.20;;;;;;5047271;28;20057;-61
2023/03/04 01:44:01;;;;;;;13.88;6.97;;;1.80;82.30;;;;;;5045940;28;20053;-61
2023/03/04 01:46:41;;;;;;;16.42;8.13;;;1.80;82.50;;;;;;5058902;28;20100;-62
2023/03/04 01:49:13;;;;;;;15.82;7.07;;;1.90;82.50;;;;;;5066718;28;20044;-61
2023/03/04 01:51:40;;;;;;;15.80;7.85;;;1.80;82.50;;;;;;5065183;28;20056;-61
2023/03/04 01:54:09;;;;;;;15.68;7.43;;;1.80;82.50;;;;;;5065273;28;20056;-62
2023/03/04 01:56:37;;;;;;;15.27;7.72;;;1.80;82.60;;;;;;5064564;28;20056;-63
2023/03/04 01:59:10;;;;;;;15.18;8.18;;;1.90;82.30;;;;;;5061025;28;20127;-62
2023/03/04 02:01:39;;;;;;;16.90;8.00;;;1.80;82.40;;;;;;5066099;28;20040;-61
2023/03/04 02:04:07;;;;;;;17.63;8.13;;;1.80;82.40;;;;;;5064350;28;20045;-62
2023/03/04 02:06:35;;;;;;;14.77;8.63;;;1.80;82.50;;;;;;5066372;28;20056;-63
2023/03/04 02:09:03;;;;;;;16.30;8.43;;;1.80;82.60;;;;;;5066779;28;20181;-61
2023/03/04 02:11:30;;;;;;;17.05;8.18;;;1.80;82.70;;;;;;5066104;28;20055;-60
2023/03/04 02:13:57;;;;;;;15.38;8.15;;;1.80;82.60;;;;;;5065352;28;20055;-61
2023/03/04 02:16:26;;;;;;;14.63;7.18;;;1.80;82.60;;;;;;5067223;28;20048;-60
2023/03/04 02:18:55;;;;;;;14.07;7.32;;;1.80;82.70;;;;;;5065570;28;20049;-63
2023/03/04 02:21:25;;;;;;;16.70;7.88;;;1.80;82.60;;;;;;5064812;28;20044;-62
2023/03/04 02:24:00;;;;;;;15.30;8.10;;;1.70;82.70;;;;;;5064780;28;20045;-60
2023/03/04 02:26:31;;;;;;;15.30;7.40;;;1.80;82.70;;;;;;5065559;28;20135;-63
2023/03/04 02:29:01;;;;;;;16.73;8.55;;;1.70;82.80;;;;;;5057693;28;20098;-60
2023/03/04 02:31:31;;;;;;;16.05;8.02;;;1.70;82.80;;;;;;5066118;28;20054;-62
2023/03/04 02:34:01;;;;;;;15.77;7.50;;;1.70;82.90;;;;;;5066768;28;20040;-63
2023/03/04 02:36:29;;;;;;;;;;;1.80;82.90;;;;;;5066344;28;20482;-62
2023/03/04 02:39:02;;;;;;;17.85;7.78;;;1.80;82.70;;;;;;5059079;28;19935;-61
2023/03/04 02:41:32;;;;;;;15.40;7.70;;;1.80;82.70;;;;;;5066538;28;20056;-61
2023/03/04 02:44:00;;;;;;;16.70;8.07;;;1.90;82.40;;;;;;5063578;28;20082;-63
2023/03/04 02:46:28;;;;;;;15.90;7.82;;;1.80;82.50;;;;;;5068959;28;20053;-62
2023/03/04 02:48:55;;;;;;;17.33;8.60;;;1.80;82.50;;;;;;5061612;28;20181;-61
2023/03/04 02:51:22;;;;;;;14.88;7.82;;;1.80;82.60;;;;;;5069261;28;20059;-61
2023/03/04 02:53:49;;;;;;;16.17;8.40;;;1.80;82.60;;;;;;5068843;28;20048;-63
2023/03/04 02:56:16;;;;;;;18.75;8.20;;;1.80;82.50;;;;;;5064285;28;20455;-63
2023/03/04 02:58:44;;;;;;;17.73;7.95;;;1.80;82.70;;;;;;5069316;28;20067;-61
2023/03/04 03:01:12;;;;;;;16.48;7.93;;;1.80;82.80;;;;;;5067625;28;20056;-63
2023/03/04 03:03:39;;;;;;;15.18;7.82;;;1.80;82.90;;;;;;5069495;28;20075;-62
2023/03/04 03:06:06;;;;;;;17.65;7.53;;;1.80;83.00;;;;;;5059608;28;20135;-62
2023/03/04 03:08:33;;;;;;;14.75;7.78;;;1.80;82.70;;;;;;5061050;28;20063;-62
2023/03/04 03:11:01;;;;;;;18.55;8.45;;;1.90;82.80;;;;;;5066485;28;20135;-61
2023/03/04 03:13:30;;;;;;;15.48;7.85;;;1.80;82.90;;;;;;5067182;28;20056;-62
2023/03/04 03:15:58;;;;;;;13.68;7.72;;;1.80;82.90;;;;;;5068458;28;20044;-62
2023/03/04 03:18:25;;;;;;;15.52;8.07;;;1.80;83.00;;;;;;5068058;28;20048;-61
2023/03/04 03:20:52;;;;;;;14.40;7.38;;;1.80;83.00;;;;;;5067972;28;20036;-61
2023/03/04 03:23:19;;;;;;;17.33;8.35;;;1.80;82.90;;;;;;5066789;28;20509;-61
2023/03/04 03:25:46;;;;;;;13.38;7.22;;;1.90;82.80;;;;;;5068343;28;20045;-63
2023/03/04 03:28:13;;;;;;;18.30;9.15;;;1.90;82.80;;;;;;5069888;28;20040;-62
2023/03/04 03:30:40;;;;;;;16.00;8.50;;;1.90;82.80;;;;;;5068294;28;20584;-63
2023/03/04 03:33:08;;;;;;;15.77;7.70;;;1.90;82.70;;;;;;5068337;28;20491;-61
2023/03/04 03:35:37;;;;;;;21.25;8.65;;;1.90;82.70;;;;;;5064836;28;20053;-62
2023/03/04 03:38:04;;;;;;;15.85;7.72;;;2.00;82.80;;;;;;5064152;28;20059;-61
2023/03/04 03:40:31;;;;;;;15.25;7.82;;;1.90;82.90;;;;;;5063823;28;20126;-61
2023/03/04 03:42:58;;;;;;;17.75;7.95;;;1.90;82.90;;;;;;5068516;28;20064;-62
2023/03/04 03:45:24;;;;;;;17.35;7.72;;;1.90;83.00;;;;;;5064455;28;20087;-62
2023/03/04 03:47:51;;;;;;;17.48;8.68;;;1.80;83.00;;;;;;5067289;28;20048;-60
2023/03/04 03:50:20;;;;;;;18.48;8.77;;;1.90;83.10;;;;;;5063099;28;20127;-62
2023/03/04 03:52:46;;;;;;;15.25;7.95;;;1.90;82.80;;;;;;5067849;28;20518;-61
2023/03/04 03:55:13;;;;;;;16.42;7.93;;;1.90;82.90;;;;;;5065594;28;20785;-61
2023/03/04 03:57:40;;;;;;;16.98;8.25;;;1.90;83.00;;;;;;5063613;28;20491;-60
2023/03/04 04:00:09;;;;;;;15.40;8.00;;;1.90;83.10;;;;;;5066232;28;20063;-61
2023/03/04 04:02:39;;;;;;;15.40;8.30;;;1.90;83.00;;;;;;5065974;28;20557;-62
2023/03/04 04:05:07;;;;;;;17.65;8.90;;;1.90;82.90;;;;;;5065674;28;20051;-63
2023/03/04 04:07:36;;;;;;;17.33;8.32;;;1.90;83.00;;;;;;5067238;28;20067;-62
2023/03/04 04:10:04;;;;;;;19.67;8.77;;;1.90;82.80;;;;;;5064541;28;20055;-61
2023/03/04 04:12:31;;;;;;;15.43;8.27;;;1.90;83.00;;;;;;5067914;28;20056;-61
2023/03/04 04:14:58;;;;;;;15.48;7.70;;;1.90;82.90;;;;;;5067656;28;20040;-61
2023/03/04 04:17:25;;;;;;;18.08;8.57;;;1.90;83.00;;;;;;5066131;28;20400;-62
2023/03/04 04:19:52;;;;;;;17.33;8.52;;;1.90;83.00;;;;;;5066648;28;20049;-61
2023/03/04 04:22:20;;;;;;;19.52;9.70;;;1.90;83.10;;;;;;5067925;28;20048;-61
2023/03/04 04:24:48;;;;;;;18.65;9.43;;;1.90;83.10;;;;;;5068395;28;20049;-61
2023/03/04 04:27:16;;;;;;;16.45;8.32;;;1.90;83.20;;;;;;5065318;28;20041;-61
2023/03/04 04:29:42;;;;;;;14.15;7.93;;;1.90;83.20;;;;;;5065061;28;20056;-62
2023/03/04 04:32:11;;;;;;;18.35;8.25;;;1.90;83.20;;;;;;5065247;28;20051;-61
2023/03/04 04:34:39;;;;;;;19.05;8.55;;;1.90;83.10;;;;;;5065813;28;20048;-60
2023/03/04 04:37:05;;;;;;;17.17;8.52;;;2.00;83.00;;;;;;5067298;28;20045;-61
2023/03/04 04:39:32;;;;;;;19.13;9.50;;;1.90;83.10;;;;;;5067455;28;20047;-60
2023/03/04 04:42:01;;;;;;;17.20;8.82;;;1.90;83.20;;;;;;5067942;28;20135;-61
2023/03/04 04:44:27;;;;;;;20.55;10.20;;;1.90;83.30;;;;;;5064197;28;20040;-61
2023/03/04 04:46:54;;;;;;;21.50;9.15;;;1.90;83.10;;;;;;5063746;28;20114;-62
2023/03/04 04:49:21;;;;;;;17.73;9.38;;;1.90;83.30;;;;;;5065195;28;20061;-62
2023/03/04 04:51:48;;;;;;;18.50;8.73;;;1.90;83.30;;;;;;5064380;28;20040;-63
2023/03/04 04:54:15;;;;;;;18.45;9.38;;;1.90;83.30;;;;;;5063974;28;20193;-62
2023/03/04 04:56:43;;;;;;;18.05;8.82;;;1.90;83.30;;;;;;5066696;28;20549;-62
2023/03/04 04:59:11;;;;;;;17.00;8.82;;;1.90;83.30;;;;;;5066660;28;20040;-62
2023/03/04 05:01:38;;;;;;;16.15;8.93;;;1.90;83.40;;;;;;5066968;28;20044;-61
2023/03/04 05:04:05;;;;;;;20.70;10.18;;;1.90;83.40;;;;;;5066977;28;20052;-62
2023/03/04 05:06:32;;;;;;;16.70;8.52;;;1.90;83.40;;;;;;5066582;28;20072;-61
2023/03/04 05:08:59;;;;;;;17.20;8.88;;;1.90;83.30;;;;;;5066919;28;20048;-61
2023/03/04 05:11:26;;;;;;;19.23;8.57;;;2.00;83.20;;;;;;5066971;28;20053;-61
2023/03/04 05:13:53;;;;;;;18.38;8.90;;;2.00;83.30;;;;;;5066642;28;20056;-61
2023/03/04 05:16:21;;;;;;;18.33;8.93;;;2.00;83.30;;;;;;5067142;28;20052;-60
2023/03/04 05:18:48;;;;;;;17.73;8.85;;;1.90;83.50;;;;;;5066652;28;20044;-61
2023/03/04 05:21:15;;;;;;;17.00;8.73;;;2.00;83.30;;;;;;5066023;28;20067;-60
2023/03/04 05:23:43;;;;;;;15.93;8.90;;;2.00;83.40;;;;;;5067612;28;20061;-60
2023/03/04 05:26:14;;;;;;;17.65;9.35;;;2.10;83.40;;;;;;5066155;28;20072;-62
2023/03/04 05:28:41;;;;;;;16.45;8.70;;;2.00;83.40;;;;;;5062258;28;20049;-61
2023/03/04 05:31:09;;;;;;;20.50;9.80;;;2.00;83.40;;;;;;5064178;28;20053;-62
2023/03/04 05:33:38;;;;;;;16.48;8.93;;;2.00;83.40;;;;;;5067999;28;20048;-61
2023/03/04 05:36:06;;;;;;;16.48;9.20;;;2.00;83.50;;;;;;5062536;28;20608;-62
2023/03/04 05:38:33;;;;;;;17.70;9.05;;;2.10;83.10;;;;;;5065215;28;20056;-61
2023/03/04 05:41:03;;;;;;;20.95;9.55;;;2.00;83.10;;;;;;5065924;28;20052;-61
2023/03/04 05:43:31;;;;;;;15.47;8.20;;;2.00;83.20;;;;;;5066152;28;20205;-61
2023/03/04 05:45:58;;;;;;;18.73;9.40;;;2.10;83.30;;;;;;5059901;28;21331;-60
2023/03/04 05:48:25;;;;;;;17.13;9.23;;;2.10;83.00;;;;;;5064855;28;20315;-62
2023/03/04 05:50:56;;;;;;;19.08;9.23;;;2.10;83.30;;;;;;5062439;28;20117;-64
2023/03/04 05:53:23;;;;;;;18.98;9.35;;;2.10;83.20;;;;;;5066313;28;20097;-61
2023/03/04 05:55:50;;;;;;;17.73;9.20;;;2.10;83.20;;;;;;5066833;28;20044;-61
2023/03/04 05:58:18;;;;;;;18.92;9.27;;;2.10;83.30;;;;;;5066767;28;20071;-61
2023/03/04 06:00:45;;;;;;;20.50;9.35;;;2.10;83.30;;;;;;5064475;28;20052;-62
2023/03/04 06:03:15;;;;;;;20.00;9.43;;;2.10;83.20;;;;;;5064581;28;20053;-62
2023/03/04 06:05:42;;;;;;;16.67;8.60;;;2.20;83.10;;;;;;5064209;28;20645;-62
2023/03/04 06:08:12;;;;;;;18.85;9.02;;;2.10;83.10;;;;;;5065529;28;20071;-61
2023/03/04 06:10:40;;;;;;;18.98;9.77;;;2.20;83.20;;;;;;5064849;28;20415;-60
2023/03/04 06:13:07;;;;;;;18.33;9.40;;;2.10;83.20;;;;;;5063943;28;20048;-61
2023/03/04 06:15:34;;;;;;;17.88;9.10;;;2.10;83.30;;;;;;5065676;28;20056;-62
2023/03/04 06:18:01;;;;;;;18.90;8.93;;;2.20;83.30;;;;;;5064262;28;20040;-60
2023/03/04 06:20:28;;;;;;;19.20;9.60;;;2.20;83.40;;;;;;5065284;28;20040;-60
2023/03/04 06:22:55;;;;;;;20.30;10.52;;;2.20;83.30;;;;;;5063413;28;20052;-62
2023/03/04 06:25:23;;;;;;;18.65;9.57;;;2.20;83.00;;;;;;5061926;28;20048;-60
2023/03/04 06:27:50;;;;;;;17.17;9.30;;;2.20;83.20;;;;;;5064856;28;20063;-60
2023/03/04 06:30:18;;;;;;;17.80;10.35;;;2.20;83.20;;;;;;5056704;28;20048;-61
2023/03/04 06:32:46;;;;;;;18.38;10.38;;;2.20;83.20;;;;;;5062264;28;20067;-60
2023/03/04 06:35:15;;;;;;;17.80;9.88;;;2.20;83.20;;;;;;5063562;28;20116;-62
2023/03/04 06:37:42;;;;;;;19.75;10.07;;;2.20;83.20;;;;;;5065173;28;20507;-61
2023/03/04 06:40:11;;;;;;;18.85;10.52;;;2.20;83.00;;;;;;5064928;28;20048;-60
2023/03/04 06:42:40;;;;;;;17.73;9.57;;;2.20;83.00;;;;;;5065470;28;20037;-60
2023/03/04 06:45:08;;;;;;;19.60;9.65;;;2.30;83.00;;;;;;5063294;28;20040;-62
2023/03/04 06:47:35;;;;;;;18.52;9.43;;;2.30;83.00;;;;;;5067839;28;20114;-63
2023/03/04 06:50:03;;;;;;;15.38;8.68;;;2.30;83.10;;;;;;5067099;28;20056;-62
2023/03/04 06:52:31;;;;;;;19.65;10.13;;;2.30;83.20;;;;;;5067096;28;20061;-62
2023/03/04 06:54:58;;;;;;;16.38;8.70;;;2.30;82.80;;;;;;5064151;28;20049;-62
2023/03/04 06:57:25;;;;;;;16.23;9.15;;;2.30;83.10;;;;;;5066477;28;20052;-62
2023/03/04 06:59:53;;;;;;;18.67;9.93;;;2.30;83.10;;;;;;5065631;28;20049;-63
2023/03/04 07:02:20;;;;;;;18.67;10.20;;;2.30;82.90;;;;;;5066579;28;20414;-63
2023/03/04 07:04:47;;;;;;;20.25;9.57;;;2.30;82.80;;;;;;5065976;28;20060;-62
2023/03/04 07:07:14;;;;;;;16.90;9.00;;;2.30;83.00;;;;;;5065994;28;20595;-61
2023/03/04 07:09:41;;;;;;;16.48;8.70;;;2.30;83.00;;;;;;5062702;28;20107;-60
2023/03/04 07:12:08;;;;;;;17.58;9.80;;;2.40;83.00;;;;;;5064632;28;20044;-62
2023/03/04 07:14:37;;;;;;;19.48;10.80;;;2.40;82.80;;;;;;5065229;28;20048;-62
2023/03/04 07:17:05;;;;;;;19.63;10.13;;;2.40;82.70;;;;;;5063192;28;20136;-61
2023/03/04 07:19:32;;;;;;;21.90;10.35;;;2.40;82.80;;;;;;5064299;28;20045;-61
2023/03/04 07:21:59;;;;;;;20.33;9.52;;;2.50;82.80;;;;;;5065558;28;20045;-60
2023/03/04 07:24:27;;;;;;;20.30;9.90;;;2.50;82.50;;;;;;5067888;28;20052;-60
2023/03/04 07:26:54;;;;;;;17.27;9.25;;;2.50;82.40;;;;;;5065350;28;20071;-59
2023/03/04 07:29:21;;;;;;;19.00;10.15;;;2.50;82.60;;;;;;5068986;28;20111;-61
2023/03/04 07:31:47;;;;;;;19.40;10.13;;;2.50;82.50;;;;;;5063485;28;20052;-60
2023/03/04 07:34:16;;;;;;;20.42;10.45;;;2.60;82.60;;;;;;5068306;28;20044;-61
2023/03/04 07:36:43;;;;;;;18.60;10.07;;;2.60;82.50;;;;;;5068213;28;20053;-61
2023/03/04 07:39:11;;;;;;;16.67;9.60;;;2.60;82.50;;;;;;5067652;28;20049;-60
2023/03/04 07:41:39;;;;;;;22.45;10.48;;;2.60;82.20;;;;;;5067937;28;20911;-63
2023/03/04 07:44:07;;;;;;;20.67;10.20;;;2.60;82.30;;;;;;5068360;28;20040;-61
2023/03/04 07:46:35;;;;;;;18.60;9.73;;;2.60;82.40;;;;;;5069756;28;20125;-61
2023/03/04 07:49:01;;;;;;;18.42;9.30;;;2.70;82.50;;;;;;5065737;28;20052;-60
2023/03/04 07:51:30;;;;;;;17.77;10.32;;;2.70;82.30;;;;;;5065823;28;20040;-62
2023/03/04 07:54:00;;;;;;;18.98;9.82;;;2.70;82.00;;;;;;5064413;28;20102;-60
2023/03/04 07:56:29;;;;;;;18.33;10.30;;;2.70;82.30;;;;;;5062422;28;20746;-60
2023/03/04 07:58:56;;;;;;;17.80;10.02;;;2.70;82.00;;;;;;5066092;28;20478;-61
2023/03/04 08:01:26;;;;;;;19.23;10.20;;;2.70;82.40;;;;;;5066516;28;20533;-59
2023/03/04 08:03:53;;;;;;;18.88;9.98;;;2.80;81.90;;;;;;5064044;28;20059;-60
2023/03/04 08:06:21;;;;;;;18.40;10.43;;;2.80;82.10;;;;;;5066777;28;20048;-60
2023/03/04 08:08:49;;;;;;;17.23;9.65;;;2.80;82.30;;;;;;5065905;28;20085;-61
2023/03/04 08:11:19;;;;;;;18.95;10.45;;;2.80;81.90;;;;;;5065518;28;20492;-61
2023/03/04 08:13:46;;;;;;;18.42;9.38;;;2.90;82.40;;;;;;5064915;28;20059;-61
2023/03/04 08:16:15;;;;;;;18.48;9.20;;;2.90;82.20;;;;;;5062615;28;20044;-61
2023/03/04 08:18:42;;;;;;;15.25;9.20;;;2.90;82.30;;;;;;5065480;28;20572;-62
2023/03/04 08:21:10;;;;;;;16.00;9.55;;;2.90;82.40;;;;;;5064219;28;20123;-60
2023/03/04 08:23:37;;;;;;;17.67;9.57;;;2.90;82.20;;;;;;5066557;28;20061;-62
2023/03/04 08:26:11;;;;;;;20.50;9.70;;;3.00;82.20;;;;;;5064716;28;20048;-61
2023/03/04 08:28:38;;;;;;;17.92;9.93;;;3.00;82.10;;;;;;5061542;28;20131;-62
2023/03/04 08:31:05;;;;;;;17.63;9.73;;;3.00;82.40;;;;;;5065476;28;20060;-60
2023/03/04 08:33:33;;;;;;;19.00;10.27;;;3.10;82.40;;;;;;5067462;28;20064;-61
2023/03/04 08:36:00;;;;;;;16.85;9.30;;;3.10;82.20;;;;;;5067533;28;20056;-61
2023/03/04 08:38:31;;;;;;;17.90;9.32;;;3.10;82.10;;;;;;5065218;28;20510;-61
2023/03/04 08:40:59;;;;;;;15.23;9.20;;;3.10;82.10;;;;;;5066326;28;20044;-60
2023/03/04 08:43:27;;;;;;;17.52;9.68;;;3.10;82.00;;;;;;5066570;28;20103;-62
2023/03/04 08:45:54;;;;;;;17.50;9.20;;;3.20;82.00;;;;;;5066037;28;20488;-61
2023/03/04 08:48:22;;;;;;;16.92;9.52;;;3.20;81.90;;;;;;5066144;28;20521;-60
2023/03/04 08:50:50;;;;;;;16.83;9.95;;;3.20;81.90;;;;;;5066847;28;20052;-60
2023/03/04 08:53:17;;;;;;;19.77;9.32;;;3.30;81.90;;;;;;5066796;28;20048;-61
2023/03/04 08:55:44;;;;;;;17.23;8.95;;;3.30;82.00;;;;;;5065569;28;20044;-60
2023/03/04 08:58:12;;;;;;;19.58;9.68;;;3.40;81.80;;;;;;5067208;28;20062;-61
2023/03/04 09:00:42;;;;;;;16.58;9.18;;;3.40;81.60;;;;;;5063206;28;20403;-72
2023/03/04 09:03:11;;;;;;;15.45;9.25;;;3.50;81.50;;;;;;5061887;28;20097;-71
2023/03/04 09:05:38;;;;;;;19.73;9.13;;;3.50;81.30;;;;;;5064968;28;20479;-70
2023/03/04 09:08:06;;;;;;;18.73;9.52;;;3.50;81.20;;;;;;5066679;28;20487;-69
2023/03/04 09:10:33;;;;;;;16.75;8.73;;;3.50;81.10;;;;;;5065325;28;20052;-71
2023/03/04 09:13:00;;;;;;;15.05;8.30;;;3.60;80.90;;;;;;5065677;28;20049;-70
2023/03/04 09:15:28;;;;;;;15.90;8.70;;;3.60;80.90;;;;;;5068093;28;20431;-70
2023/03/04 09:17:56;;;;;;;16.10;8.77;;;3.70;80.70;;;;;;5067634;28;20052;-71
2023/03/04 09:20:23;;;;;;;14.10;8.02;;;3.70;80.60;;;;;;5067511;28;20453;-69
2023/03/04 09:22:50;;;;;;;18.77;8.60;;;3.70;80.60;;;;;;5067673;28;20154;-70
2023/03/04 09:25:17;;;;;;;15.35;8.63;;;3.70;80.60;;;;;;5066964;28;20522;-70
2023/03/04 09:27:44;;;;;;;18.85;9.80;;;3.70;80.60;;;;;;5068875;28;20441;-72
2023/03/04 09:30:12;;;;;;;15.98;8.25;;;3.80;80.70;;;;;;5065451;28;20075;-71
2023/03/04 09:32:40;;;;;;;19.83;9.38;;;3.80;80.50;;;;;;5068773;28;20487;-70
2023/03/04 09:35:09;;;;;;;17.00;8.27;;;3.80;80.50;;;;;;5066904;28;20070;-71
2023/03/04 09:37:37;;;;;;;17.73;9.52;;;3.80;80.40;;;;;;5067647;28;20052;-71
2023/03/04 09:40:05;;;;;;;17.50;8.77;;;3.80;80.20;;;;;;5067272;28;20044;-70
2023/03/04 09:42:36;;;;;;;19.40;9.35;;;3.90;80.20;;;;;;5068469;28;20050;-71
2023/03/04 09:45:07;;;;;;;19.02;8.93;;;3.90;80.20;;;;;;5068356;28;20076;-70
2023/03/04 09:47:35;;;;;;;17.65;8.80;;;3.90;80.20;;;;;;5069016;28;20064;-71
2023/03/04 09:50:07;;;;;;;16.02;8.88;;;3.90;80.20;;;;;;5067234;28;20067;-65
2023/03/04 09:52:51;;;;;;;15.82;8.77;;;4.00;80.00;;;;;;5068594;28;20048;-65
2023/03/04 09:55:24;;;;;;;17.20;9.07;;;4.00;79.90;;;;;;5064164;28;20060;-65
2023/03/04 09:57:56;;;;;;;16.27;9.10;;;4.00;79.80;;;;;;5068236;28;20053;-64
2023/03/04 10:00:25;;;;;;;21.55;9.70;;;4.10;79.80;;;;;;5067427;28;20056;-65
2023/03/04 10:03:10;;;;;;;17.90;9.13;;;4.20;79.70;;;;;;5067846;28;20064;-64
2023/03/04 10:05:42;;;;;;;17.33;8.82;;;4.20;79.50;;;;;;5065008;28;20049;-64
2023/03/04 10:08:41;;;;;;;17.17;9.00;;;4.20;79.50;;;;;;5067561;28;20084;-63
2023/03/04 10:11:17;;;;;;;16.17;9.07;;;4.20;79.50;;;;;;5064914;28;20055;-65
2023/03/04 10:13:53;;;;;;;16.35;9.40;;;4.20;79.50;;;;;;5066032;28;20045;-65
2023/03/04 10:16:22;;;;;;;17.38;9.80;;;4.20;79.40;;;;;;5065498;28;20040;-65
2023/03/04 10:18:53;;;;;;;17.80;9.88;;;4.20;79.30;;;;;;5065782;28;20052;-66
2023/03/04 10:21:26;;;;;;;17.42;9.18;;;4.20;79.40;;;;;;5066817;28;20036;-64
2023/03/04 10:23:54;;;;;;;18.63;9.30;;;4.30;79.30;;;;;;5066786;28;20048;-65
2023/03/04 10:26:23;;;;;;;22.38;10.02;;;4.30;79.20;;;;;;5066894;28;20384;-65
2023/03/04 10:28:50;;;;;;;17.92;9.75;;;4.30;79.10;;;;;;5066920;28;20044;-64
2023/03/04 10:31:22;;;;;;;20.42;10.02;;;4.40;79.00;;;;;;5064285;28;20105;-65
2023/03/04 10:33:50;;;;;;;19.25;9.20;;;4.40;79.00;;;;;;5064244;28;20143;-65
2023/03/04 10:36:36;;;;;;;17.23;9.38;;;4.50;78.90;;;;;;5065107;28;20049;-65
2023/03/04 10:39:09;;;;;;;20.10;10.25;;;4.50;78.70;;;;;;5065863;28;20045;-63
2023/03/04 10:41:36;;;;;;;17.95;9.40;;;4.50;78.70;;;;;;5061785;28;20051;-64
2023/03/04 10:44:10;;;;;;;16.80;10.00;;;4.50;78.50;;;;;;5063844;28;20040;-65
2023/03/04 10:46:39;;;;;;;18.55;9.25;;;4.50;78.40;;;;;;5063219;28;20477;-65
2023/03/04 10:49:06;;;;;;;15.70;9.32;;;4.60;78.30;;;;;;5062870;28;20059;-63
2023/03/04 10:51:43;;;;;;;19.27;9.82;;;4.60;78.30;;;;;;5065773;28;20072;-64
2023/03/04 10:54:23;;;;;;;18.88;8.77;;;4.60;78.00;;;;;;5065919;28;20062;-65
2023/03/04 10:56:59;;;;;;;17.52;9.45;;;4.70;77.90;;;;;;5071351;28;20123;-66
2023/03/04 10:59:38;;;;;;;17.95;9.25;;;4.70;77.70;;;;;;5078490;28;20052;-64
2023/03/04 11:02:16;;;;;;;20.65;9.35;;;4.70;77.50;;;;;;5069355;28;20068;-66
2023/03/04 11:04:48;;;;;;;23.05;9.50;;;4.80;77.40;;;;;;5069190;28;20052;-65
2023/03/04 11:07:16;;;;;;;21.00;9.63;;;4.80;77.20;;;;;;5070272;28;20487;-64
2023/03/04 11:09:45;;;;;;;18.38;9.32;;;4.90;77.00;;;;;;5071041;28;20052;-63
2023/03/04 11:12:14;;;;;;;15.77;8.35;;;5.00;77.00;;;;;;5067565;28;20068;-70
2023/03/04 11:14:47;;;;;;;19.80;8.82;;;5.00;77.00;;;;;;5069375;28;20055;-68
2023/03/04 11:17:20;;;;;;;17.02;8.90;;;5.00;76.80;;;;;;5067896;28;20063;-69
2023/03/04 11:19:51;;;;;;;16.52;8.57;;;5.10;76.90;;;;;;5069538;28;20040;-70
2023/03/04 11:22:21;;;;;;;17.98;8.68;;;5.10;76.70;;;;;;5069839;28;20060;-68
2023/03/04 11:24:57;;;;;;;21.42;9.70;;;5.10;76.60;;;;;;5069271;28;20045;-68
2023/03/04 11:27:31;;;;;;;18.02;9.80;;;5.20;76.50;;;;;;5070910;28;20568;-69
2023/03/04 11:30:03;;;;;;;22.05;10.43;;;5.20;76.40;;;;;;5068194;28;20047;-68
2023/03/04 11:32:36;;;;;;;22.17;10.00;;;5.20;76.10;;;;;;5068394;28;20052;-69
2023/03/04 11:35:14;;;;;;;18.85;9.10;;;5.30;76.30;;;;;;5069226;28;20828;-70
2023/03/04 11:37:48;;;;;;;21.55;9.98;;;5.30;76.00;;;;;;5067582;28;20959;-70
2023/03/04 11:40:34;;;;;;;17.70;10.88;;;5.40;76.00;;;;;;5069647;28;20043;-69
2023/03/04 11:43:06;;;;;;;21.83;9.85;;;5.40;76.10;;;;;;5070287;28;20059;-70
2023/03/04 11:45:48;;;;;;;17.05;9.70;;;5.50;75.60;;;;;;5070790;28;20056;-69
2023/03/04 11:48:24;;;;;;;14.63;8.95;;;5.50;75.40;;;;;;5069478;28;20049;-70
2023/03/04 11:50:53;;;;;;;19.15;8.80;;;5.60;75.60;;;;;;5070230;28;20048;-69
2023/03/04 11:53:42;;;;;;;16.85;8.73;;;5.70;75.50;;;;;;5066499;28;20055;-68
2023/03/04 11:56:24;;;;;;;18.63;9.02;;;5.70;75.30;;;;;;5064114;28;20052;-69
2023/03/04 11:59:23;;;;;;;19.20;8.73;;;5.70;75.20;;;;;;5067240;28;20099;-68
2023/03/04 12:02:02;;;;;;;18.33;8.55;;;5.70;75.30;;;;;;5064088;28;20052;-69
2023/03/04 12:04:42;;;;;;;17.52;8.93;;;5.70;75.40;;;;;;5067370;28;20055;-71
2023/03/04 12:07:21;;;;;;;18.92;9.05;;;5.80;75.10;;;;;;5067600;28;20139;-69
2023/03/04 12:10:02;;;;;;;15.93;8.27;;;5.70;75.10;;;;;;5067244;28;20045;-69
2023/03/04 12:12:52;;;;;;;18.35;8.98;;;5.70;75.10;;;;;;5058756;28;20045;-69
2023/03/04 12:15:25;;;;;;;20.30;10.10;;;5.80;75.20;;;;;;5060848;28;20065;-68
2023/03/04 12:18:05;;;;;;;26.42;9.85;;;5.80;75.20;;;;;;5059582;28;20059;-68
2023/03/04 12:20:53;;;;;;;19.90;8.98;;;5.80;75.10;;;;;;5066803;28;20053;-70
2023/03/04 12:23:44;;;;;;;18.50;9.07;;;5.80;75.30;;;;;;5065998;28;20198;-69
2023/03/04 12:26:25;;;;;;;16.67;7.47;;;5.80;75.20;;;;;;5067857;28;20037;-69
2023/03/04 12:29:02;;;;;;;14.63;8.13;;;5.80;75.10;;;;;;5066009;28;20052;-69
2023/03/04 12:31:37;;;;;;;16.17;8.00;;;5.90;75.00;;;;;;5068755;28;20052;-70
2023/03/04 12:34:30;;;;;;;15.45;7.57;;;5.90;75.10;;;;;;5067728;28;20145;-71
2023/03/04 12:37:34;;;;;;;16.48;7.80;;;5.90;75.20;;;;;;5067624;28;20603;-69
2023/03/04 12:40:19;;;;;;;14.38;7.22;;;6.00;74.90;;;;;;5064299;28;20435;-67
2023/03/04 12:43:00;;;;;;;15.98;7.55;;;6.00;74.90;;;;;;5070137;28;20127;-70
2023/03/04 12:45:38;;;;;;;18.52;7.72;;;6.00;74.90;;;;;;5066397;28;20056;-69
2023/03/04 12:48:14;;;;;;;15.70;7.13;;;6.10;74.90;;;;;;5064274;28;20036;-68
2023/03/04 12:50:48;;;;;;;13.77;6.85;;;6.10;74.90;;;;;;5069621;28;20087;-69
2023/03/04 12:53:24;;;;;;;17.58;6.57;;;6.10;74.60;;;;;;5065868;28;20050;-69
2023/03/04 12:55:55;;;;;;;13.73;6.82;;;6.20;74.50;;;;;;5065654;28;20123;-69
2023/03/04 12:58:26;;;;;;;14.65;6.78;;;6.20;74.60;;;;;;5065104;28;20056;-70